Fremont, Michigan
Current Conditions -  °F | °C
As of 7:11 AM on Thursday 29 Jan 2015 (Local Time) from KFFX Reporting Station
Overcast Overcast  
Wind Chill: 28°   Ceiling: 2900
Heat Index: 28°   Visibility: 10mi
Dew Point: 24°   Wind: 3mph
Humidity: 88%   Direction: 90°E
Pressure: 29.74"   Gusts: NA
Location:  43.46°N, 85.95°W
Report Text: KFFX 291211Z AUTO 09003KT 10SM OVC029 M02/M04 A2974 RMK AO2 T10251042
Loading
Personal Weather Stations






























Interactive Weather Map New forecast layout! Learn more

10-Day Weather Forecast

Advertisements
Track Severe Weather on mobile